createdAt,value
2023-03-26T00:00:17.788Z,42.18
2023-03-26T00:20:17.803Z,42.19
2023-03-26T00:40:17.785Z,42.19
2023-03-26T01:00:17.756Z,42.19
2023-03-26T01:20:17.850Z,42.19
2023-03-26T01:40:17.736Z,42.18
2023-03-26T02:00:17.741Z,42.17
2023-03-26T02:20:17.693Z,42.17
2023-03-26T03:00:17.674Z,42.14
2023-03-26T03:20:17.691Z,42.12
2023-03-26T03:40:17.640Z,42.09
2023-03-26T04:00:17.767Z,42.06
2023-03-26T04:20:17.620Z,42.03
2023-03-26T04:40:17.609Z,42.01
2023-03-26T05:00:17.602Z,42
2023-03-26T05:20:17.567Z,41.98
2023-03-26T05:40:17.579Z,41.96
2023-03-26T06:00:17.549Z,41.93
2023-03-26T06:20:17.549Z,41.92
2023-03-26T06:40:17.558Z,41.89
2023-03-26T07:00:17.511Z,41.87
2023-03-26T07:20:17.211Z,41.86
2023-03-26T07:40:17.194Z,41.85
2023-03-26T08:00:17.458Z,41.83
2023-03-26T08:20:17.431Z,41.82
2023-03-26T09:40:17.381Z,41.84
2023-03-26T10:00:17.342Z,41.79
2023-03-26T10:20:17.344Z,41.76
2023-03-26T10:40:17.298Z,41.68
2023-03-26T11:00:17.307Z,41.71
2023-03-26T11:20:17.285Z,41.75
2023-03-26T11:40:17.293Z,41.81
2023-03-26T12:00:17.314Z,41.84
2023-03-26T12:20:17.232Z,41.86
2023-03-26T12:40:20.671Z,41.91
2023-03-26T13:20:17.221Z,41.96
2023-03-26T13:40:17.141Z,41.99
2023-03-26T14:00:17.194Z,42.01
2023-03-26T14:40:17.278Z,42.02
2023-03-26T15:00:17.070Z,42.02
2023-03-26T15:20:17.041Z,42.03
2023-03-26T15:40:17.029Z,42.03
2023-03-26T16:00:17.005Z,42.03
2023-03-26T16:20:16.732Z,42.04
2023-03-26T16:40:16.973Z,42.03
2023-03-26T17:00:16.976Z,42.02
2023-03-26T17:20:16.955Z,42.02
2023-03-26T17:40:16.945Z,42.01
2023-03-26T18:00:16.929Z,41.99
2023-03-26T18:20:16.949Z,41.99
2023-03-26T18:40:16.958Z,41.98
2023-03-26T19:00:16.893Z,41.97
2023-03-26T19:20:16.860Z,41.96
2023-03-26T19:40:16.845Z,41.95
2023-03-26T20:00:16.819Z,41.93
2023-03-26T20:20:16.833Z,41.92
2023-03-26T20:40:16.825Z,41.9
2023-03-26T21:00:16.816Z,41.89
2023-03-26T21:20:16.539Z,41.87
2023-03-26T21:40:17.013Z,41.87
2023-03-26T22:00:16.831Z,41.87
2023-03-26T22:20:16.801Z,41.85
2023-03-26T22:40:16.799Z,41.84
2023-03-26T23:00:16.783Z,41.83
2023-03-26T23:20:16.798Z,41.82
2023-03-26T23:40:16.750Z,41.8
